sensor_id;sensor_type;location;lat;lon;timestamp;temperature;humidity
77467;DHT22;66564;42.482;25.548;2023-05-07T00:02:21;15.11;62.86
77467;DHT22;66564;42.482;25.548;2023-05-07T00:04:46;15.05;62.64
77467;DHT22;66564;42.482;25.548;2023-05-07T00:07:12;15.04;62.71
77467;DHT22;66564;42.482;25.548;2023-05-07T00:09:37;15.01;62.86
77467;DHT22;66564;42.482;25.548;2023-05-07T00:12:03;14.97;62.69
77467;DHT22;66564;42.482;25.548;2023-05-07T00:14:29;14.98;62.69
77467;DHT22;66564;42.482;25.548;2023-05-07T00:16:55;15.01;62.49
77467;DHT22;66564;42.482;25.548;2023-05-07T00:19:20;15.00;62.30
77467;DHT22;66564;42.482;25.548;2023-05-07T00:21:46;14.95;61.92
77467;DHT22;66564;42.482;25.548;2023-05-07T00:24:12;14.92;61.66
77467;DHT22;66564;42.482;25.548;2023-05-07T00:26:37;14.95;61.46
77467;DHT22;66564;42.482;25.548;2023-05-07T00:29:03;14.95;61.30
77467;DHT22;66564;42.482;25.548;2023-05-07T00:31:28;14.91;61.11
77467;DHT22;66564;42.482;25.548;2023-05-07T00:33:54;14.90;61.00
77467;DHT22;66564;42.482;25.548;2023-05-07T00:36:20;14.88;60.72
77467;DHT22;66564;42.482;25.548;2023-05-07T00:38:45;14.85;60.75
77467;DHT22;66564;42.482;25.548;2023-05-07T00:41:11;14.81;60.74
77467;DHT22;66564;42.482;25.548;2023-05-07T00:43:36;14.81;60.54
77467;DHT22;66564;42.482;25.548;2023-05-07T00:46:02;14.76;60.64
77467;DHT22;66564;42.482;25.548;2023-05-07T00:48:28;14.66;61.18
77467;DHT22;66564;42.482;25.548;2023-05-07T00:50:54;14.67;61.36
77467;DHT22;66564;42.482;25.548;2023-05-07T00:53:20;14.74;61.20
77467;DHT22;66564;42.482;25.548;2023-05-07T00:55:46;14.74;61.13
77467;DHT22;66564;42.482;25.548;2023-05-07T00:58:11;14.81;61.11
77467;DHT22;66564;42.482;25.548;2023-05-07T01:00:37;14.78;61.16
77467;DHT22;66564;42.482;25.548;2023-05-07T01:03:02;14.73;61.10
77467;DHT22;66564;42.482;25.548;2023-05-07T01:05:29;14.70;60.92
77467;DHT22;66564;42.482;25.548;2023-05-07T01:07:56;14.76;60.88
77467;DHT22;66564;42.482;25.548;2023-05-07T01:10:22;14.73;61.23
77467;DHT22;66564;42.482;25.548;2023-05-07T01:12:48;14.73;61.63
77467;DHT22;66564;42.482;25.548;2023-05-07T01:15:15;14.71;62.35
77467;DHT22;66564;42.482;25.548;2023-05-07T01:17:41;14.70;62.85
77467;DHT22;66564;42.482;25.548;2023-05-07T01:20:08;14.68;63.02
77467;DHT22;66564;42.482;25.548;2023-05-07T01:22:37;14.63;63.47
77467;DHT22;66564;42.482;25.548;2023-05-07T01:25:04;14.61;63.71
77467;DHT22;66564;42.482;25.548;2023-05-07T01:27:30;14.60;64.06
77467;DHT22;66564;42.482;25.548;2023-05-07T01:29:56;14.57;64.10
77467;DHT22;66564;42.482;25.548;2023-05-07T01:32:29;14.57;64.20
77467;DHT22;66564;42.482;25.548;2023-05-07T01:34:57;14.55;64.47
77467;DHT22;66564;42.482;25.548;2023-05-07T01:37:24;14.47;64.52
77467;DHT22;66564;42.482;25.548;2023-05-07T01:39:50;14.47;64.45
77467;DHT22;66564;42.482;25.548;2023-05-07T01:42:16;14.38;64.79
77467;DHT22;66564;42.482;25.548;2023-05-07T01:44:42;14.32;64.90
77467;DHT22;66564;42.482;25.548;2023-05-07T01:47:08;14.36;64.99
77467;DHT22;66564;42.482;25.548;2023-05-07T01:49:34;14.27;65.10
77467;DHT22;66564;42.482;25.548;2023-05-07T01:52:00;14.26;65.69
77467;DHT22;66564;42.482;25.548;2023-05-07T01:54:26;14.27;65.82
77467;DHT22;66564;42.482;25.548;2023-05-07T01:56:56;14.29;66.12
77467;DHT22;66564;42.482;25.548;2023-05-07T01:59:22;14.26;66.43
77467;DHT22;66564;42.482;25.548;2023-05-07T02:01:47;14.20;66.91
77467;DHT22;66564;42.482;25.548;2023-05-07T02:04:13;14.27;66.54
77467;DHT22;66564;42.482;25.548;2023-05-07T02:06:38;14.33;66.74
77467;DHT22;66564;42.482;25.548;2023-05-07T02:09:04;14.34;66.25
77467;DHT22;66564;42.482;25.548;2023-05-07T02:11:30;14.37;66.66
77467;DHT22;66564;42.482;25.548;2023-05-07T02:13:55;14.44;65.97
77467;DHT22;66564;42.482;25.548;2023-05-07T02:16:21;14.50;65.96
77467;DHT22;66564;42.482;25.548;2023-05-07T02:18:48;14.46;66.02
77467;DHT22;66564;42.482;25.548;2023-05-07T02:21:14;14.56;65.51
77467;DHT22;66564;42.482;25.548;2023-05-07T02:23:39;14.64;65.37
77467;DHT22;66564;42.482;25.548;2023-05-07T02:26:05;14.64;65.17
77467;DHT22;66564;42.482;25.548;2023-05-07T02:28:30;14.66;64.83
77467;DHT22;66564;42.482;25.548;2023-05-07T02:30:56;14.70;64.92
77467;DHT22;66564;42.482;25.548;2023-05-07T02:33:23;14.68;64.94
77467;DHT22;66564;42.482;25.548;2023-05-07T02:35:49;14.64;64.68
77467;DHT22;66564;42.482;25.548;2023-05-07T02:38:17;14.60;65.53
77467;DHT22;66564;42.482;25.548;2023-05-07T02:40:42;14.51;65.59
77467;DHT22;66564;42.482;25.548;2023-05-07T02:43:08;14.48;65.59
77467;DHT22;66564;42.482;25.548;2023-05-07T02:45:33;14.47;65.05
77467;DHT22;66564;42.482;25.548;2023-05-07T02:47:59;14.44;65.24
77467;DHT22;66564;42.482;25.548;2023-05-07T02:50:24;14.43;65.15
77467;DHT22;66564;42.482;25.548;2023-05-07T02:52:50;14.33;65.61
77467;DHT22;66564;42.482;25.548;2023-05-07T02:55:16;14.26;65.96
77467;DHT22;66564;42.482;25.548;2023-05-07T02:57:41;14.29;66.01
77467;DHT22;66564;42.482;25.548;2023-05-07T03:00:15;14.29;66.26
77467;DHT22;66564;42.482;25.548;2023-05-07T03:02:41;14.29;66.33
77467;DHT22;66564;42.482;25.548;2023-05-07T03:05:07;14.23;66.42
77467;DHT22;66564;42.482;25.548;2023-05-07T03:07:34;14.20;66.66
77467;DHT22;66564;42.482;25.548;2023-05-07T03:10:00;14.12;66.84
77467;DHT22;66564;42.482;25.548;2023-05-07T03:12:25;14.06;66.82
77467;DHT22;66564;42.482;25.548;2023-05-07T03:14:51;13.99;66.78
77467;DHT22;66564;42.482;25.548;2023-05-07T03:17:16;13.89;67.19
77467;DHT22;66564;42.482;25.548;2023-05-07T03:19:42;13.93;67.30
77467;DHT22;66564;42.482;25.548;2023-05-07T03:22:07;13.93;67.13
77467;DHT22;66564;42.482;25.548;2023-05-07T03:24:33;13.87;67.10
77467;DHT22;66564;42.482;25.548;2023-05-07T03:26:58;13.87;67.12
77467;DHT22;66564;42.482;25.548;2023-05-07T03:29:24;13.81;67.42
77467;DHT22;66564;42.482;25.548;2023-05-07T03:31:49;13.75;67.50
77467;DHT22;66564;42.482;25.548;2023-05-07T03:34:15;13.73;67.53
77467;DHT22;66564;42.482;25.548;2023-05-07T03:36:42;13.76;67.28
77467;DHT22;66564;42.482;25.548;2023-05-07T03:39:07;13.83;67.36
77467;DHT22;66564;42.482;25.548;2023-05-07T03:41:33;13.83;67.70
77467;DHT22;66564;42.482;25.548;2023-05-07T03:43:59;13.85;67.89
77467;DHT22;66564;42.482;25.548;2023-05-07T03:46:24;13.86;68.16
77467;DHT22;66564;42.482;25.548;2023-05-07T03:48:51;13.89;68.34
77467;DHT22;66564;42.482;25.548;2023-05-07T03:51:17;13.90;68.04
77467;DHT22;66564;42.482;25.548;2023-05-07T03:53:42;13.93;68.78
77467;DHT22;66564;42.482;25.548;2023-05-07T03:56:08;13.98;67.79
77467;DHT22;66564;42.482;25.548;2023-05-07T03:58:33;14.05;68.81
77467;DHT22;66564;42.482;25.548;2023-05-07T04:00:59;14.10;68.62
77467;DHT22;66564;42.482;25.548;2023-05-07T04:03:24;14.19;67.84
77467;DHT22;66564;42.482;25.548;2023-05-07T04:05:50;14.29;68.24
77467;DHT22;66564;42.482;25.548;2023-05-07T04:08:15;14.37;68.32
77467;DHT22;66564;42.482;25.548;2023-05-07T04:10:41;14.41;68.19
77467;DHT22;66564;42.482;25.548;2023-05-07T04:13:06;14.48;68.16
77467;DHT22;66564;42.482;25.548;2023-05-07T04:15:32;14.51;67.77
77467;DHT22;66564;42.482;25.548;2023-05-07T04:17:57;14.57;67.93
77467;DHT22;66564;42.482;25.548;2023-05-07T04:20:23;14.73;67.31
77467;DHT22;66564;42.482;25.548;2023-05-07T04:22:50;14.84;67.49
77467;DHT22;66564;42.482;25.548;2023-05-07T04:25:15;14.90;67.42
77467;DHT22;66564;42.482;25.548;2023-05-07T04:27:41;14.98;67.10
77467;DHT22;66564;42.482;25.548;2023-05-07T04:30:07;15.04;67.33
77467;DHT22;66564;42.482;25.548;2023-05-07T04:32:33;15.11;67.08
77467;DHT22;66564;42.482;25.548;2023-05-07T04:34:58;15.21;66.88
77467;DHT22;66564;42.482;25.548;2023-05-07T04:37:25;15.12;67.42
77467;DHT22;66564;42.482;25.548;2023-05-07T04:39:51;15.22;67.61
77467;DHT22;66564;42.482;25.548;2023-05-07T04:42:17;15.32;67.59
77467;DHT22;66564;42.482;25.548;2023-05-07T04:44:44;14.87;68.78
77467;DHT22;66564;42.482;25.548;2023-05-07T04:47:10;15.07;68.52
77467;DHT22;66564;42.482;25.548;2023-05-07T04:49:36;15.22;67.41
77467;DHT22;66564;42.482;25.548;2023-05-07T04:52:02;15.21;66.50
77467;DHT22;66564;42.482;25.548;2023-05-07T04:54:28;15.38;66.52
77467;DHT22;66564;42.482;25.548;2023-05-07T04:56:54;15.55;65.58
77467;DHT22;66564;42.482;25.548;2023-05-07T04:59:20;15.63;65.25
77467;DHT22;66564;42.482;25.548;2023-05-07T05:01:45;15.76;65.28
77467;DHT22;66564;42.482;25.548;2023-05-07T05:04:11;15.85;65.49
77467;DHT22;66564;42.482;25.548;2023-05-07T05:06:36;15.97;64.58
77467;DHT22;66564;42.482;25.548;2023-05-07T05:09:02;16.09;64.10
77467;DHT22;66564;42.482;25.548;2023-05-07T05:11:28;16.21;63.42
77467;DHT22;66564;42.482;25.548;2023-05-07T05:13:54;16.36;62.68
77467;DHT22;66564;42.482;25.548;2023-05-07T05:16:19;16.49;62.01
77467;DHT22;66564;42.482;25.548;2023-05-07T05:18:45;16.60;61.65
77467;DHT22;66564;42.482;25.548;2023-05-07T05:21:10;16.70;60.77
77467;DHT22;66564;42.482;25.548;2023-05-07T05:23:36;16.72;60.91
77467;DHT22;66564;42.482;25.548;2023-05-07T05:26:01;16.84;61.45
77467;DHT22;66564;42.482;25.548;2023-05-07T05:28:26;16.92;60.17
77467;DHT22;66564;42.482;25.548;2023-05-07T05:30:53;16.92;60.39
77467;DHT22;66564;42.482;25.548;2023-05-07T05:33:18;17.07;59.18
77467;DHT22;66564;42.482;25.548;2023-05-07T05:52:11;18.13;54.19
77467;DHT22;66564;42.482;25.548;2023-05-07T05:54:37;18.21;54.35
77467;DHT22;66564;42.482;25.548;2023-05-07T05:57:02;18.31;54.26
77467;DHT22;66564;42.482;25.548;2023-05-07T05:59:29;18.04;55.61
77467;DHT22;66564;42.482;25.548;2023-05-07T06:01:55;18.30;56.28
77467;DHT22;66564;42.482;25.548;2023-05-07T06:04:20;18.48;55.40
77467;DHT22;66564;42.482;25.548;2023-05-07T06:06:46;18.55;53.39
77467;DHT22;66564;42.482;25.548;2023-05-07T06:09:11;18.68;52.95
77467;DHT22;66564;42.482;25.548;2023-05-07T06:11:38;18.83;50.27
77467;DHT22;66564;42.482;25.548;2023-05-07T06:14:08;18.97;49.38
77467;DHT22;66564;42.482;25.548;2023-05-07T06:16:33;19.14;46.72
77467;DHT22;66564;42.482;25.548;2023-05-07T06:18:59;19.22;42.06
77467;DHT22;66564;42.482;25.548;2023-05-07T06:21:24;19.32;39.81
77467;DHT22;66564;42.482;25.548;2023-05-07T06:23:50;19.36;40.51
77467;DHT22;66564;42.482;25.548;2023-05-07T06:26:23;19.56;40.36
77467;DHT22;66564;42.482;25.548;2023-05-07T06:28:49;19.77;36.86
77467;DHT22;66564;42.482;25.548;2023-05-07T06:31:16;19.94;37.75
77467;DHT22;66564;42.482;25.548;2023-05-07T06:33:43;20.12;38.35
77467;DHT22;66564;42.482;25.548;2023-05-07T06:36:09;20.34;38.02
77467;DHT22;66564;42.482;25.548;2023-05-07T06:38:35;20.51;38.35
77467;DHT22;66564;42.482;25.548;2023-05-07T06:41:01;20.72;37.97
77467;DHT22;66564;42.482;25.548;2023-05-07T06:43:26;20.94;37.97
77467;DHT22;66564;42.482;25.548;2023-05-07T06:45:52;21.08;38.01
77467;DHT22;66564;42.482;25.548;2023-05-07T06:48:17;21.18;36.99
77467;DHT22;66564;42.482;25.548;2023-05-07T06:50:43;21.11;35.94
77467;DHT22;66564;42.482;25.548;2023-05-07T06:53:08;21.38;37.00
77467;DHT22;66564;42.482;25.548;2023-05-07T06:55:34;21.59;35.14
77467;DHT22;66564;42.482;25.548;2023-05-07T06:57:59;21.49;35.23
77467;DHT22;66564;42.482;25.548;2023-05-07T07:00:29;21.89;36.17
77467;DHT22;66564;42.482;25.548;2023-05-07T07:02:55;22.16;35.65
77467;DHT22;66564;42.482;25.548;2023-05-07T07:05:20;22.37;34.90
77467;DHT22;66564;42.482;25.548;2023-05-07T07:07:46;22.60;34.25
77467;DHT22;66564;42.482;25.548;2023-05-07T07:10:21;22.79;36.86
77467;DHT22;66564;42.482;25.548;2023-05-07T07:12:47;22.92;37.40
77467;DHT22;66564;42.482;25.548;2023-05-07T07:15:13;23.09;37.08
77467;DHT22;66564;42.482;25.548;2023-05-07T07:17:39;23.22;36.51
77467;DHT22;66564;42.482;25.548;2023-05-07T07:20:05;22.91;36.80
77467;DHT22;66564;42.482;25.548;2023-05-07T07:22:30;23.15;36.02
77467;DHT22;66564;42.482;25.548;2023-05-07T07:24:56;23.41;34.31
77467;DHT22;66564;42.482;25.548;2023-05-07T07:27:21;23.56;35.11
77467;DHT22;66564;42.482;25.548;2023-05-07T07:29:47;23.77;34.88
77467;DHT22;66564;42.482;25.548;2023-05-07T07:32:12;23.94;34.40
77467;DHT22;66564;42.482;25.548;2023-05-07T07:34:38;24.01;34.10
77467;DHT22;66564;42.482;25.548;2023-05-07T07:37:03;24.16;33.92
77467;DHT22;66564;42.482;25.548;2023-05-07T07:39:34;24.17;33.66
77467;DHT22;66564;42.482;25.548;2023-05-07T07:42:02;24.28;33.27
77467;DHT22;66564;42.482;25.548;2023-05-07T07:44:28;24.42;33.44
77467;DHT22;66564;42.482;25.548;2023-05-07T07:46:54;24.58;32.86
77467;DHT22;66564;42.482;25.548;2023-05-07T07:49:19;24.55;32.74
77467;DHT22;66564;42.482;25.548;2023-05-07T07:51:45;24.61;32.39
77467;DHT22;66564;42.482;25.548;2023-05-07T07:54:10;24.78;33.60
77467;DHT22;66564;42.482;25.548;2023-05-07T07:56:36;24.69;32.93
77467;DHT22;66564;42.482;25.548;2023-05-07T07:59:02;24.74;31.60
77467;DHT22;66564;42.482;25.548;2023-05-07T08:01:29;24.91;31.87
77467;DHT22;66564;42.482;25.548;2023-05-07T08:03:55;25.05;31.49
77467;DHT22;66564;42.482;25.548;2023-05-07T08:06:23;24.98;32.07
77467;DHT22;66564;42.482;25.548;2023-05-07T08:08:48;24.92;32.35
77467;DHT22;66564;42.482;25.548;2023-05-07T08:11:14;24.99;32.77
77467;DHT22;66564;42.482;25.548;2023-05-07T08:13:39;24.82;33.98
77467;DHT22;66564;42.482;25.548;2023-05-07T08:16:05;25.04;32.10
77467;DHT22;66564;42.482;25.548;2023-05-07T08:18:31;24.91;31.63
77467;DHT22;66564;42.482;25.548;2023-05-07T08:20:56;24.60;32.00
77467;DHT22;66564;42.482;25.548;2023-05-07T08:23:22;24.58;32.93
77467;DHT22;66564;42.482;25.548;2023-05-07T08:25:48;24.64;32.53
77467;DHT22;66564;42.482;25.548;2023-05-07T08:28:14;24.48;33.92
77467;DHT22;66564;42.482;25.548;2023-05-07T08:30:40;24.58;32.23
77467;DHT22;66564;42.482;25.548;2023-05-07T08:33:06;24.78;32.22
77467;DHT22;66564;42.482;25.548;2023-05-07T08:35:31;25.05;32.61
77467;DHT22;66564;42.482;25.548;2023-05-07T08:37:57;25.32;31.64
77467;DHT22;66564;42.482;25.548;2023-05-07T08:40:25;25.50;30.70
77467;DHT22;66564;42.482;25.548;2023-05-07T08:42:52;25.73;31.39
77467;DHT22;66564;42.482;25.548;2023-05-07T08:45:19;26.03;30.33
77467;DHT22;66564;42.482;25.548;2023-05-07T08:47:54;26.24;30.79
77467;DHT22;66564;42.482;25.548;2023-05-07T08:50:21;26.05;31.71
77467;DHT22;66564;42.482;25.548;2023-05-07T08:52:47;26.23;30.44
77467;DHT22;66564;42.482;25.548;2023-05-07T08:55:13;26.16;30.88
77467;DHT22;66564;42.482;25.548;2023-05-07T08:57:39;26.43;29.70
77467;DHT22;66564;42.482;25.548;2023-05-07T09:00:05;26.13;30.79
77467;DHT22;66564;42.482;25.548;2023-05-07T09:02:32;26.41;30.34
77467;DHT22;66564;42.482;25.548;2023-05-07T09:04:58;26.37;29.96
77467;DHT22;66564;42.482;25.548;2023-05-07T09:07:25;26.44;28.55
77467;DHT22;66564;42.482;25.548;2023-05-07T09:09:51;26.49;28.91
77467;DHT22;66564;42.482;25.548;2023-05-07T09:12:18;25.98;29.01
77467;DHT22;66564;42.482;25.548;2023-05-07T09:14:44;26.11;28.85
77467;DHT22;66564;42.482;25.548;2023-05-07T09:17:11;26.08;28.79
77467;DHT22;66564;42.482;25.548;2023-05-07T09:19:36;26.04;28.72
77467;DHT22;66564;42.482;25.548;2023-05-07T09:22:04;26.14;30.06
77467;DHT22;66564;42.482;25.548;2023-05-07T09:24:30;26.23;29.16
77467;DHT22;66564;42.482;25.548;2023-05-07T09:27:00;26.13;29.64
77467;DHT22;66564;42.482;25.548;2023-05-07T09:29:27;25.84;29.48
77467;DHT22;66564;42.482;25.548;2023-05-07T09:32:07;25.25;29.50
77467;DHT22;66564;42.482;25.548;2023-05-07T09:34:33;25.63;29.18
77467;DHT22;66564;42.482;25.548;2023-05-07T09:37:01;25.50;29.74
77467;DHT22;66564;42.482;25.548;2023-05-07T09:39:38;25.47;29.40
77467;DHT22;66564;42.482;25.548;2023-05-07T09:42:06;25.36;29.62
77467;DHT22;66564;42.482;25.548;2023-05-07T09:44:33;25.35;29.55
77467;DHT22;66564;42.482;25.548;2023-05-07T09:47:00;25.67;30.15
77467;DHT22;66564;42.482;25.548;2023-05-07T09:49:29;25.53;29.88
77467;DHT22;66564;42.482;25.548;2023-05-07T09:51:55;25.69;29.08
77467;DHT22;66564;42.482;25.548;2023-05-07T09:54:24;25.76;29.38
77467;DHT22;66564;42.482;25.548;2023-05-07T09:56:52;25.62;28.84
77467;DHT22;66564;42.482;25.548;2023-05-07T09:59:18;25.87;29.73
77467;DHT22;66564;42.482;25.548;2023-05-07T10:01:45;25.79;29.34
77467;DHT22;66564;42.482;25.548;2023-05-07T10:04:11;25.63;29.56
77467;DHT22;66564;42.482;25.548;2023-05-07T10:06:39;25.87;30.14
77467;DHT22;66564;42.482;25.548;2023-05-07T10:09:06;26.20;28.17
77467;DHT22;66564;42.482;25.548;2023-05-07T10:11:35;25.87;29.81
77467;DHT22;66564;42.482;25.548;2023-05-07T10:14:02;26.20;28.86
77467;DHT22;66564;42.482;25.548;2023-05-07T10:16:33;26.31;30.94
77467;DHT22;66564;42.482;25.548;2023-05-07T10:19:07;26.28;29.37
77467;DHT22;66564;42.482;25.548;2023-05-07T10:21:39;26.49;28.82
77467;DHT22;66564;42.482;25.548;2023-05-07T10:24:12;26.65;28.89
77467;DHT22;66564;42.482;25.548;2023-05-07T10:26:48;26.91;28.46
77467;DHT22;66564;42.482;25.548;2023-05-07T10:29:45;26.62;29.01
77467;DHT22;66564;42.482;25.548;2023-05-07T10:34:54;26.11;28.47
77467;DHT22;66564;42.482;25.548;2023-05-07T10:37:21;26.44;29.01
77467;DHT22;66564;42.482;25.548;2023-05-07T10:39:48;26.67;30.43
77467;DHT22;66564;42.482;25.548;2023-05-07T10:42:14;26.30;29.61
77467;DHT22;66564;42.482;25.548;2023-05-07T10:44:40;26.67;29.44
77467;DHT22;66564;42.482;25.548;2023-05-07T10:47:10;26.71;29.02
77467;DHT22;66564;42.482;25.548;2023-05-07T10:52:30;27.00;27.95
77467;DHT22;66564;42.482;25.548;2023-05-07T10:57:45;27.22;28.62
77467;DHT22;66564;42.482;25.548;2023-05-07T11:05:41;26.88;28.91
77467;DHT22;66564;42.482;25.548;2023-05-07T11:08:09;27.10;29.06
77467;DHT22;66564;42.482;25.548;2023-05-07T11:10:54;27.23;28.02
77467;DHT22;66564;42.482;25.548;2023-05-07T11:13:48;27.15;28.48
77467;DHT22;66564;42.482;25.548;2023-05-07T11:18:52;27.10;28.25
77467;DHT22;66564;42.482;25.548;2023-05-07T11:21:34;26.91;27.91
77467;DHT22;66564;42.482;25.548;2023-05-07T11:24:01;27.18;27.37
77467;DHT22;66564;42.482;25.548;2023-05-07T11:26:30;27.39;28.57
77467;DHT22;66564;42.482;25.548;2023-05-07T11:29:04;27.66;30.44
77467;DHT22;66564;42.482;25.548;2023-05-07T11:31:35;27.74;28.31
77467;DHT22;66564;42.482;25.548;2023-05-07T11:34:02;27.67;28.04
77467;DHT22;66564;42.482;25.548;2023-05-07T11:36:32;27.66;27.78
77467;DHT22;66564;42.482;25.548;2023-05-07T11:38:59;27.64;28.64
77467;DHT22;66564;42.482;25.548;2023-05-07T11:41:42;27.64;28.88
77467;DHT22;66564;42.482;25.548;2023-05-07T11:44:08;27.61;28.38
77467;DHT22;66564;42.482;25.548;2023-05-07T11:46:34;27.63;29.15
77467;DHT22;66564;42.482;25.548;2023-05-07T11:49:00;27.46;28.86
77467;DHT22;66564;42.482;25.548;2023-05-07T11:51:26;27.38;27.99
77467;DHT22;66564;42.482;25.548;2023-05-07T11:53:52;26.75;29.51
77467;DHT22;66564;42.482;25.548;2023-05-07T11:56:18;26.86;29.36
77467;DHT22;66564;42.482;25.548;2023-05-07T11:58:47;26.96;28.93
77467;DHT22;66564;42.482;25.548;2023-05-07T12:01:13;26.68;28.49
77467;DHT22;66564;42.482;25.548;2023-05-07T12:03:43;26.62;29.83
77467;DHT22;66564;42.482;25.548;2023-05-07T12:06:12;26.65;29.11
77467;DHT22;66564;42.482;25.548;2023-05-07T12:08:42;26.84;29.49
77467;DHT22;66564;42.482;25.548;2023-05-07T12:11:29;26.86;29.30
77467;DHT22;66564;42.482;25.548;2023-05-07T12:13:54;26.96;29.42
77467;DHT22;66564;42.482;25.548;2023-05-07T12:16:23;27.02;28.89
77467;DHT22;66564;42.482;25.548;2023-05-07T12:18:51;27.00;28.29
77467;DHT22;66564;42.482;25.548;2023-05-07T12:21:18;26.86;28.61
77467;DHT22;66564;42.482;25.548;2023-05-07T12:23:43;27.02;28.73
77467;DHT22;66564;42.482;25.548;2023-05-07T12:26:09;26.81;28.94
77467;DHT22;66564;42.482;25.548;2023-05-07T12:28:37;26.92;29.08
77467;DHT22;66564;42.482;25.548;2023-05-07T12:31:03;26.72;28.18
77467;DHT22;66564;42.482;25.548;2023-05-07T12:33:30;26.91;28.09
77467;DHT22;66564;42.482;25.548;2023-05-07T12:35:58;26.78;28.32
77467;DHT22;66564;42.482;25.548;2023-05-07T12:38:23;26.54;28.60
77467;DHT22;66564;42.482;25.548;2023-05-07T12:40:50;26.24;29.92
77467;DHT22;66564;42.482;25.548;2023-05-07T12:43:29;26.20;30.14
77467;DHT22;66564;42.482;25.548;2023-05-07T12:45:56;26.17;30.06
77467;DHT22;66564;42.482;25.548;2023-05-07T12:48:23;26.14;29.28
77467;DHT22;66564;42.482;25.548;2023-05-07T12:50:56;26.01;29.29
77467;DHT22;66564;42.482;25.548;2023-05-07T12:53:23;25.94;30.12
77467;DHT22;66564;42.482;25.548;2023-05-07T12:55:52;26.14;29.87
77467;DHT22;66564;42.482;25.548;2023-05-07T12:58:34;26.13;29.59
77467;DHT22;66564;42.482;25.548;2023-05-07T13:01:04;26.35;29.53
77467;DHT22;66564;42.482;25.548;2023-05-07T13:03:35;26.20;29.52
77467;DHT22;66564;42.482;25.548;2023-05-07T13:06:06;26.18;29.86
77467;DHT22;66564;42.482;25.548;2023-05-07T13:08:34;25.80;29.35
77467;DHT22;66564;42.482;25.548;2023-05-07T13:11:01;25.87;30.01
77467;DHT22;66564;42.482;25.548;2023-05-07T13:13:29;25.46;30.56
77467;DHT22;66564;42.482;25.548;2023-05-07T13:15:55;25.25;30.61
77467;DHT22;66564;42.482;25.548;2023-05-07T13:18:21;25.32;29.98
77467;DHT22;66564;42.482;25.548;2023-05-07T13:20:46;25.43;32.00
77467;DHT22;66564;42.482;25.548;2023-05-07T13:23:12;25.49;30.54
77467;DHT22;66564;42.482;25.548;2023-05-07T13:25:37;25.54;32.12
77467;DHT22;66564;42.482;25.548;2023-05-07T13:28:03;25.53;30.55
77467;DHT22;66564;42.482;25.548;2023-05-07T13:30:30;25.62;30.02
77467;DHT22;66564;42.482;25.548;2023-05-07T13:32:55;25.79;29.67
77467;DHT22;66564;42.482;25.548;2023-05-07T13:35:21;25.79;30.02
77467;DHT22;66564;42.482;25.548;2023-05-07T13:37:47;25.70;29.89
77467;DHT22;66564;42.482;25.548;2023-05-07T13:40:15;25.73;30.11
77467;DHT22;66564;42.482;25.548;2023-05-07T13:42:41;25.73;30.35
77467;DHT22;66564;42.482;25.548;2023-05-07T13:45:07;25.73;30.07
77467;DHT22;66564;42.482;25.548;2023-05-07T13:47:33;25.86;30.00
77467;DHT22;66564;42.482;25.548;2023-05-07T13:49:58;25.91;29.95
77467;DHT22;66564;42.482;25.548;2023-05-07T13:52:23;25.86;30.48
77467;DHT22;66564;42.482;25.548;2023-05-07T13:54:49;25.67;30.65
77467;DHT22;66564;42.482;25.548;2023-05-07T13:57:14;25.73;30.55
77467;DHT22;66564;42.482;25.548;2023-05-07T13:59:40;25.71;30.11
77467;DHT22;66564;42.482;25.548;2023-05-07T14:02:06;25.71;30.42
77467;DHT22;66564;42.482;25.548;2023-05-07T14:04:32;25.49;30.57
77467;DHT22;66564;42.482;25.548;2023-05-07T14:06:57;25.29;30.80
77467;DHT22;66564;42.482;25.548;2023-05-07T14:09:23;25.19;30.69
77467;DHT22;66564;42.482;25.548;2023-05-07T14:11:49;25.23;30.49
77467;DHT22;66564;42.482;25.548;2023-05-07T14:14:18;24.84;31.53
77467;DHT22;66564;42.482;25.548;2023-05-07T14:16:44;24.86;30.63
77467;DHT22;66564;42.482;25.548;2023-05-07T14:19:11;24.71;30.99
77467;DHT22;66564;42.482;25.548;2023-05-07T14:21:36;24.67;32.16
77467;DHT22;66564;42.482;25.548;2023-05-07T14:24:05;24.67;31.18
77467;DHT22;66564;42.482;25.548;2023-05-07T14:26:31;24.65;31.00
77467;DHT22;66564;42.482;25.548;2023-05-07T14:28:56;24.72;31.09
77467;DHT22;66564;42.482;25.548;2023-05-07T14:31:24;24.72;31.17
77467;DHT22;66564;42.482;25.548;2023-05-07T14:33:49;24.69;31.53
77467;DHT22;66564;42.482;25.548;2023-05-07T14:36:16;24.65;31.49
77467;DHT22;66564;42.482;25.548;2023-05-07T14:38:42;24.34;31.76
77467;DHT22;66564;42.482;25.548;2023-05-07T14:41:08;24.41;31.59
77467;DHT22;66564;42.482;25.548;2023-05-07T14:43:34;24.35;32.82
77467;DHT22;66564;42.482;25.548;2023-05-07T14:46:02;24.40;31.41
77467;DHT22;66564;42.482;25.548;2023-05-07T14:48:29;24.38;32.08
77467;DHT22;66564;42.482;25.548;2023-05-07T14:50:54;24.21;31.94
77467;DHT22;66564;42.482;25.548;2023-05-07T14:53:20;24.10;32.28
77467;DHT22;66564;42.482;25.548;2023-05-07T14:55:46;23.78;32.37
77467;DHT22;66564;42.482;25.548;2023-05-07T14:58:12;24.00;33.29
77467;DHT22;66564;42.482;25.548;2023-05-07T15:00:37;23.36;33.36
77467;DHT22;66564;42.482;25.548;2023-05-07T15:03:07;23.27;33.50
77467;DHT22;66564;42.482;25.548;2023-05-07T15:05:33;23.46;33.89
77467;DHT22;66564;42.482;25.548;2023-05-07T15:08:00;23.49;33.36
77467;DHT22;66564;42.482;25.548;2023-05-07T15:10:25;23.38;33.30
77467;DHT22;66564;42.482;25.548;2023-05-07T15:12:51;23.33;33.55
77467;DHT22;66564;42.482;25.548;2023-05-07T15:15:16;23.27;33.25
77467;DHT22;66564;42.482;25.548;2023-05-07T15:17:42;23.05;33.52
77467;DHT22;66564;42.482;25.548;2023-05-07T15:20:08;22.96;33.76
77467;DHT22;66564;42.482;25.548;2023-05-07T15:22:35;22.84;33.82
77467;DHT22;66564;42.482;25.548;2023-05-07T15:25:03;22.94;34.94
77467;DHT22;66564;42.482;25.548;2023-05-07T15:27:29;22.95;35.12
77467;DHT22;66564;42.482;25.548;2023-05-07T15:29:56;22.81;35.07
77467;DHT22;66564;42.482;25.548;2023-05-07T15:32:22;22.65;34.46
77467;DHT22;66564;42.482;25.548;2023-05-07T15:34:47;22.62;34.35
77467;DHT22;66564;42.482;25.548;2023-05-07T15:37:13;22.51;34.70
77467;DHT22;66564;42.482;25.548;2023-05-07T15:39:42;22.37;34.75
77467;DHT22;66564;42.482;25.548;2023-05-07T15:42:07;22.37;35.37
77467;DHT22;66564;42.482;25.548;2023-05-07T15:44:33;22.28;35.05
77467;DHT22;66564;42.482;25.548;2023-05-07T15:46:59;22.18;35.72